Time;durP1;ratioP1;P1;durP2;ratioP2;P2;SDS_P1;SDS_P2;PMS_P1;PMS_P2;Temp;Humidity;BMP_temperature;BMP_pressure;BME280_temperature;BME280_humidity;BME280_pressure;Samples;Min_cycle;Max_cycle;Signal;HPM_P1;HPM_P2
2021/12/03 00:00:08;;;;;;;10.10;4.60;;;;;;;;;;101271;1343;63435;-27
2021/12/03 00:02:55;;;;;;;11.10;4.40;;;;;;;;;;101244;1342;63307;-27
2021/12/03 00:05:22;;;;;;;10.80;4.50;;;;;;;;;;101262;1342;63256;-29
2021/12/03 00:07:50;;;;;;;11.60;4.30;;;;;;;;;;101112;1343;63319;-29
2021/12/03 00:10:21;;;;;;;10.50;4.60;;;;;;;;;;100581;1342;632641;-27
2021/12/03 00:12:48;;;;;;;9.60;4.80;;;;;;;;;;101285;1336;63371;-25
2021/12/03 00:15:16;;;;;;;12.90;5.00;;;;;;;;;;101256;1332;63344;-30
2021/12/03 00:17:43;;;;;;;11.50;4.50;;;;;;;;;;101294;1342;63244;-28
2021/12/03 00:20:14;;;;;;;9.90;4.70;;;;;;;;;;101337;1342;63299;-29
2021/12/03 00:22:42;;;;;;;10.90;4.60;;;;;;;;;;101216;1329;63410;-29
2021/12/03 00:25:12;;;;;;;11.20;4.70;;;;;;;;;;101213;1344;63264;-30
2021/12/03 00:27:43;;;;;;;8.90;4.50;;;;;;;;;;101294;1342;63275;-30
2021/12/03 00:30:11;;;;;;;9.70;4.10;;;;;;;;;;101216;1343;64145;-28
2021/12/03 00:32:42;;;;;;;10.80;4.50;;;;;;;;;;101306;1342;63169;-28
2021/12/03 00:35:13;;;;;;;8.30;4.30;;;;;;;;;;101267;1342;63275;-28
2021/12/03 00:37:43;;;;;;;10.00;4.00;;;;;;;;;;101276;1342;63289;-29
2021/12/03 00:40:16;;;;;;;9.60;3.90;;;;;;;;;;101270;1342;63297;-28
2021/12/03 00:42:46;;;;;;;10.60;4.40;;;;;;;;;;101294;1342;63249;-28
2021/12/03 00:45:17;;;;;;;11.60;4.40;;;;;;;;;;101271;1343;63168;-28
2021/12/03 00:47:47;;;;;;;9.90;4.20;;;;;;;;;;101129;1345;63435;-29
2021/12/03 00:50:16;;;;;;;8.20;4.10;;;;;;;;;;101259;1342;63402;-29
2021/12/03 00:52:46;;;;;;;8.90;4.10;;;;;;;;;;101287;1344;63281;-37
2021/12/03 00:55:16;;;;;;;10.20;4.60;;;;;;;;;;101261;1343;63279;-28
2021/12/03 00:57:47;;;;;;;7.80;3.70;;;;;;;;;;101285;1342;63699;-32
2021/12/03 01:00:24;;;;;;;9.60;4.00;;;;;;;;;;101256;1342;63371;-29
2021/12/03 01:02:55;;;;;;;8.80;3.90;;;;;;;;;;101292;1343;63311;-29
2021/12/03 01:05:23;;;;;;;8.90;3.70;;;;;;;;;;101270;1327;63743;-29
2021/12/03 01:07:53;;;;;;;7.90;3.80;;;;;;;;;;101296;1343;63294;-30
2021/12/03 01:10:20;;;;;;;8.00;3.60;;;;;;;;;;101115;1342;63397;-29
2021/12/03 01:12:49;;;;;;;7.70;3.50;;;;;;;;;;101279;1342;63224;-28
2021/12/03 01:15:18;;;;;;;8.50;3.60;;;;;;;;;;101260;1343;63266;-29
2021/12/03 01:17:48;;;;;;;7.20;3.70;;;;;;;;;;101239;1342;63276;-29
2021/12/03 01:20:15;;;;;;;8.60;3.20;;;;;;;;;;101287;1342;63305;-28
2021/12/03 01:22:47;;;;;;;8.80;3.60;;;;;;;;;;101202;1337;63305;-29
2021/12/03 01:25:18;;;;;;;7.60;3.10;;;;;;;;;;101271;1342;63328;-30
2021/12/03 01:27:48;;;;;;;8.20;4.20;;;;;;;;;;101218;1343;63296;-29
2021/12/03 01:30:21;;;;;;;7.80;3.40;;;;;;;;;;101271;1328;63309;-29
2021/12/03 01:32:51;;;;;;;8.20;3.50;;;;;;;;;;101290;1342;63416;-29
2021/12/03 01:35:18;;;;;;;8.20;3.30;;;;;;;;;;101262;1337;63289;-28
2021/12/03 01:37:48;;;;;;;6.40;3.10;;;;;;;;;;101287;1343;63168;-29
2021/12/03 01:40:21;;;;;;;8.20;3.70;;;;;;;;;;101281;1343;63416;-30
2021/12/03 01:42:50;;;;;;;7.50;3.30;;;;;;;;;;101293;1329;63203;-28
2021/12/03 01:45:20;;;;;;;8.60;3.60;;;;;;;;;;101257;1343;63371;-28
2021/12/03 01:47:47;;;;;;;7.30;3.10;;;;;;;;;;101258;1343;63203;-28
2021/12/03 01:50:15;;;;;;;6.90;3.70;;;;;;;;;;101298;1332;63179;-29
2021/12/03 01:52:42;;;;;;;6.20;3.10;;;;;;;;;;101268;1329;63182;-29
2021/12/03 01:55:11;;;;;;;8.50;3.60;;;;;;;;;;101269;1329;63317;-28
2021/12/03 01:57:41;;;;;;;6.70;3.10;;;;;;;;;;101271;1342;63263;-28
2021/12/03 02:00:11;;;;;;;7.50;2.90;;;;;;;;;;101252;1343;63214;-29
2021/12/03 02:02:38;;;;;;;6.20;3.30;;;;;;;;;;101281;1328;63162;-28
2021/12/03 02:05:09;;;;;;;7.90;2.90;;;;;;;;;;101288;1340;63206;-28
2021/12/03 02:07:36;;;;;;;6.60;2.80;;;;;;;;;;101262;1342;63375;-28
2021/12/03 02:10:04;;;;;;;8.40;3.30;;;;;;;;;;101291;1343;63256;-29
2021/12/03 02:12:34;;;;;;;6.60;3.30;;;;;;;;;;101280;1342;64073;-28
2021/12/03 02:15:01;;;;;;;6.00;2.90;;;;;;;;;;101263;1329;64789;-29
2021/12/03 02:17:28;;;;;;;7.40;3.10;;;;;;;;;;101264;1343;64129;-35
2021/12/03 02:19:55;;;;;;;6.60;2.90;;;;;;;;;;101302;1327;64092;-30
2021/12/03 02:22:25;;;;;;;7.00;3.20;;;;;;;;;;101238;1333;64094;-29
2021/12/03 02:24:52;;;;;;;5.90;2.80;;;;;;;;;;101274;1338;63975;-28
2021/12/03 02:27:22;;;;;;;6.80;2.80;;;;;;;;;;101261;1340;64014;-28
2021/12/03 02:29:51;;;;;;;7.70;3.30;;;;;;;;;;101294;1328;64078;-28
2021/12/03 02:32:21;;;;;;;7.20;3.30;;;;;;;;;;101326;1343;64103;-28
2021/12/03 02:34:47;;;;;;;6.60;3.20;;;;;;;;;;101260;1337;64094;-28
2021/12/03 02:37:17;;;;;;;6.10;2.60;;;;;;;;;;101270;1328;64098;-28
2021/12/03 02:39:44;;;;;;;5.80;2.80;;;;;;;;;;101295;1337;64127;-28
2021/12/03 02:42:11;;;;;;;7.40;3.20;;;;;;;;;;101257;1343;64032;-28
2021/12/03 02:44:38;;;;;;;6.60;2.70;;;;;;;;;;101271;1343;64018;-34
2021/12/03 02:47:05;;;;;;;6.30;2.70;;;;;;;;;;101271;1342;64088;-30
2021/12/03 02:49:40;;;;;;;6.90;3.00;;;;;;;;;;101290;1328;64678;-29
2021/12/03 02:52:10;;;;;;;6.90;3.00;;;;;;;;;;101300;1343;63983;-29
2021/12/03 02:54:37;;;;;;;5.20;2.70;;;;;;;;;;101286;1336;65218;-28
2021/12/03 02:57:07;;;;;;;5.10;2.60;;;;;;;;;;101277;1341;63970;-28
2021/12/03 02:59:34;;;;;;;5.70;3.30;;;;;;;;;;101044;1334;64005;-28
2021/12/03 03:02:04;;;;;;;5.20;2.90;;;;;;;;;;101266;1341;64107;-28
2021/12/03 03:04:32;;;;;;;6.30;3.00;;;;;;;;;;100992;1336;64091;-28
2021/12/03 03:07:02;;;;;;;6.80;3.20;;;;;;;;;;101267;1343;64098;-28
2021/12/03 03:09:32;;;;;;;6.20;2.50;;;;;;;;;;101300;1338;64211;-34
2021/12/03 03:11:59;;;;;;;7.00;2.90;;;;;;;;;;101270;1327;64134;-28
2021/12/03 03:14:29;;;;;;;5.50;2.60;;;;;;;;;;101269;1336;64219;-29
2021/12/03 03:16:56;;;;;;;5.80;2.90;;;;;;;;;;101141;1333;64103;-29
2021/12/03 03:19:24;;;;;;;6.40;2.50;;;;;;;;;;101286;1333;64033;-29
2021/12/03 03:21:51;;;;;;;7.20;2.90;;;;;;;;;;101262;1343;63993;-28
2021/12/03 03:24:18;;;;;;;5.90;2.90;;;;;;;;;;101275;1341;64010;-28
2021/12/03 03:26:48;;;;;;;5.80;2.60;;;;;;;;;;101309;1341;64197;-28
2021/12/03 03:29:16;;;;;;;6.10;3.10;;;;;;;;;;101255;1333;64107;-28
2021/12/03 03:31:46;;;;;;;8.10;2.80;;;;;;;;;;101291;1329;64013;-28
2021/12/03 03:34:13;;;;;;;5.30;2.20;;;;;;;;;;101107;1332;64099;-28
2021/12/03 03:36:43;;;;;;;5.80;2.70;;;;;;;;;;101282;1329;64241;-28
2021/12/03 03:39:11;;;;;;;6.00;2.70;;;;;;;;;;101120;1332;64256;-28
2021/12/03 03:41:39;;;;;;;6.20;3.10;;;;;;;;;;101286;1342;64145;-28
2021/12/03 03:44:06;;;;;;;6.50;2.70;;;;;;;;;;101270;1329;64146;-28
2021/12/03 03:46:37;;;;;;;5.20;2.60;;;;;;;;;;101279;1329;64212;-28
2021/12/03 03:49:07;;;;;;;5.60;2.40;;;;;;;;;;101289;1329;64180;-28
2021/12/03 03:51:37;;;;;;;6.60;2.80;;;;;;;;;;101268;1329;63955;-28
2021/12/03 03:54:04;;;;;;;5.20;2.30;;;;;;;;;;101265;1335;64007;-28
2021/12/03 03:56:31;;;;;;;5.90;2.70;;;;;;;;;;101277;1342;64161;-28
2021/12/03 03:58:58;;;;;;;5.50;2.70;;;;;;;;;;101284;1342;64093;-28
2021/12/03 04:01:28;;;;;;;6.50;2.40;;;;;;;;;;101297;1339;64191;-29
2021/12/03 04:03:55;;;;;;;5.20;2.30;;;;;;;;;;101269;1343;64096;-28
2021/12/03 04:06:25;;;;;;;5.80;2.60;;;;;;;;;;101311;1328;64411;-31
2021/12/03 04:08:52;;;;;;;6.20;2.70;;;;;;;;;;101284;1329;64776;-28
2021/12/03 04:11:20;;;;;;;6.90;3.10;;;;;;;;;;101281;1328;64082;-28
2021/12/03 04:13:47;;;;;;;6.70;2.50;;;;;;;;;;101264;1329;64078;-29
2021/12/03 04:16:15;;;;;;;5.50;2.60;;;;;;;;;;101109;1341;64398;-29
2021/12/03 04:18:45;;;;;;;6.30;2.80;;;;;;;;;;101247;1329;64099;-28
2021/12/03 04:21:15;;;;;;;5.60;2.50;;;;;;;;;;101261;1330;64057;-28
2021/12/03 04:23:44;;;;;;;4.70;2.40;;;;;;;;;;101262;1330;64819;-28
2021/12/03 04:26:11;;;;;;;5.80;2.40;;;;;;;;;;101275;1329;64225;-28
2021/12/03 04:28:41;;;;;;;4.70;2.20;;;;;;;;;;101256;1329;64082;-31
2021/12/03 04:31:12;;;;;;;5.20;2.30;;;;;;;;;;101254;1328;64418;-34
2021/12/03 04:33:42;;;;;;;4.80;2.50;;;;;;;;;;101273;1327;64112;-28
2021/12/03 04:36:09;;;;;;;6.40;2.80;;;;;;;;;;101293;1333;64111;-28
2021/12/03 04:38:38;;;;;;;6.20;2.80;;;;;;;;;;101276;1329;64112;-29
2021/12/03 04:41:08;;;;;;;4.90;2.30;;;;;;;;;;101269;1329;64012;-28
2021/12/03 04:43:38;;;;;;;6.10;2.70;;;;;;;;;;101261;1335;63984;-28
2021/12/03 04:46:05;;;;;;;5.20;2.30;;;;;;;;;;101269;1329;64092;-29
2021/12/03 04:48:35;;;;;;;5.20;2.40;;;;;;;;;;101281;1329;64153;-28
2021/12/03 04:51:02;;;;;;;5.50;2.30;;;;;;;;;;101256;1329;64206;-28
2021/12/03 04:53:32;;;;;;;4.90;2.20;;;;;;;;;;101262;1329;64104;-28
2021/12/03 04:55:59;;;;;;;5.20;2.50;;;;;;;;;;101292;1329;64251;-28
2021/12/03 04:58:29;;;;;;;4.60;2.10;;;;;;;;;;101279;1328;64250;-36
2021/12/03 05:00:56;;;;;;;5.10;2.00;;;;;;;;;;101260;1329;64115;-33
2021/12/03 05:03:25;;;;;;;5.50;2.70;;;;;;;;;;101240;1329;63959;-28
2021/12/03 05:05:56;;;;;;;4.60;2.10;;;;;;;;;;101286;1329;64092;-28
2021/12/03 05:08:24;;;;;;;4.70;2.50;;;;;;;;;;101261;1329;64097;-28
2021/12/03 05:10:55;;;;;;;5.40;2.70;;;;;;;;;;101250;1329;64001;-28
2021/12/03 05:13:26;;;;;;;5.10;2.30;;;;;;;;;;101257;1329;64206;-28
2021/12/03 05:15:53;;;;;;;5.60;2.40;;;;;;;;;;101085;1338;64280;-27
2021/12/03 05:18:22;;;;;;;5.10;2.70;;;;;;;;;;101274;1329;64125;-28
2021/12/03 05:20:53;;;;;;;5.40;2.70;;;;;;;;;;101294;1330;64165;-28
2021/12/03 05:23:22;;;;;;;4.70;2.40;;;;;;;;;;101258;1330;64083;-28
2021/12/03 05:25:52;;;;;;;5.30;2.30;;;;;;;;;;101251;1335;64023;-27
2021/12/03 05:28:22;;;;;;;5.10;2.30;;;;;;;;;;101251;1328;64200;-28
2021/12/03 05:30:52;;;;;;;5.80;2.70;;;;;;;;;;101259;1329;64118;-28
2021/12/03 05:33:20;;;;;;;6.30;2.80;;;;;;;;;;101256;1329;64111;-28
2021/12/03 05:35:50;;;;;;;5.40;2.20;;;;;;;;;;101214;1328;64187;-28
2021/12/03 05:38:20;;;;;;;4.80;2.50;;;;;;;;;;101276;1329;64129;-28
2021/12/03 05:40:50;;;;;;;4.40;2.30;;;;;;;;;;101225;1335;64076;-28
2021/12/03 05:43:17;;;;;;;6.10;2.40;;;;;;;;;;101273;1329;63998;-28
2021/12/03 05:45:47;;;;;;;4.50;2.20;;;;;;;;;;101299;1329;64174;-28
2021/12/03 05:48:14;;;;;;;4.60;2.30;;;;;;;;;;101283;1329;64142;-27
2021/12/03 05:50:45;;;;;;;4.80;2.40;;;;;;;;;;101266;1329;63966;-28
2021/12/03 05:53:15;;;;;;;4.90;2.40;;;;;;;;;;101243;1329;64127;-27
2021/12/03 05:55:45;;;;;;;4.70;2.20;;;;;;;;;;101300;1336;64092;-28
2021/12/03 05:58:16;;;;;;;5.00;2.40;;;;;;;;;;101193;1333;64008;-28
2021/12/03 06:00:43;;;;;;;5.40;2.20;;;;;;;;;;101305;1328;64139;-28
2021/12/03 06:03:13;;;;;;;5.90;2.30;;;;;;;;;;101239;1329;64297;-28
2021/12/03 06:05:43;;;;;;;4.30;2.10;;;;;;;;;;101299;1329;64005;-31
2021/12/03 06:08:11;;;;;;;5.00;2.50;;;;;;;;;;101257;1335;64104;-28
2021/12/03 06:10:38;;;;;;;4.70;2.30;;;;;;;;;;101285;1342;64948;-27
2021/12/03 06:13:09;;;;;;;6.70;2.50;;;;;;;;;;101270;1330;64215;-28
2021/12/03 06:15:39;;;;;;;5.30;2.40;;;;;;;;;;101281;1330;64017;-28
2021/12/03 06:18:06;;;;;;;4.70;2.20;;;;;;;;;;101124;1332;64116;-27
2021/12/03 06:20:36;;;;;;;4.70;2.50;;;;;;;;;;101275;1329;64014;-29
2021/12/03 06:23:03;;;;;;;4.90;2.20;;;;;;;;;;101271;1330;64107;-29
2021/12/03 06:25:32;;;;;;;4.30;2.20;;;;;;;;;;101305;1329;64111;-28
2021/12/03 06:27:59;;;;;;;3.80;2.00;;;;;;;;;;101281;1328;64025;-29
2021/12/03 06:30:26;;;;;;;4.60;2.30;;;;;;;;;;101304;1336;63942;-28
2021/12/03 06:32:53;;;;;;;4.90;2.20;;;;;;;;;;101279;1328;64074;-28
2021/12/03 06:35:23;;;;;;;5.40;1.90;;;;;;;;;;101236;1333;64060;-28
2021/12/03 06:37:50;;;;;;;4.90;1.80;;;;;;;;;;101281;1336;64099;-28
2021/12/03 06:40:19;;;;;;;4.80;2.00;;;;;;;;;;101108;1332;64242;-28
2021/12/03 06:42:50;;;;;;;4.20;1.90;;;;;;;;;;101279;1330;64131;-28
2021/12/03 06:45:21;;;;;;;4.30;2.10;;;;;;;;;;101302;1327;64057;-28
2021/12/03 06:47:47;;;;;;;5.00;2.30;;;;;;;;;;101268;1329;64099;-28
2021/12/03 06:50:18;;;;;;;4.50;2.40;;;;;;;;;;101302;1341;63991;-28
2021/12/03 06:52:56;;;;;;;4.00;2.00;;;;;;;;;;101267;1329;64144;-28
2021/12/03 06:55:23;;;;;;;4.20;1.80;;;;;;;;;;101302;1329;64013;-28
2021/12/03 06:57:53;;;;;;;4.70;1.90;;;;;;;;;;101303;1335;64018;-28
2021/12/03 07:00:22;;;;;;;3.80;1.90;;;;;;;;;;101276;1330;64230;-28
2021/12/03 07:02:52;;;;;;;4.00;1.80;;;;;;;;;;101264;1330;64089;-28
2021/12/03 07:05:22;;;;;;;3.90;1.80;;;;;;;;;;101279;1333;64035;-28
2021/12/03 07:07:53;;;;;;;4.70;1.90;;;;;;;;;;101302;1329;64229;-28
2021/12/03 07:10:23;;;;;;;4.00;1.90;;;;;;;;;;101137;1343;64200;-28
2021/12/03 07:12:50;;;;;;;3.50;1.50;;;;;;;;;;101272;1336;63953;-28
2021/12/03 07:15:17;;;;;;;4.50;2.00;;;;;;;;;;101146;1335;64009;-28
2021/12/03 07:17:47;;;;;;;3.80;1.80;;;;;;;;;;101275;1330;64119;-28
2021/12/03 07:20:14;;;;;;;4.40;1.90;;;;;;;;;;101212;1329;64067;-28
2021/12/03 07:22:41;;;;;;;4.40;2.20;;;;;;;;;;101247;1338;64035;-28
2021/12/03 07:25:08;;;;;;;4.40;2.00;;;;;;;;;;101284;1334;64219;-28
2021/12/03 07:27:35;;;;;;;3.60;1.50;;;;;;;;;;101148;1332;64085;-28
2021/12/03 07:30:06;;;;;;;4.10;1.80;;;;;;;;;;101253;1329;64099;-28
2021/12/03 07:32:33;;;;;;;4.30;1.90;;;;;;;;;;101282;1330;64147;-28
2021/12/03 07:35:00;;;;;;;4.40;1.90;;;;;;;;;;101300;1332;64121;-28
2021/12/03 07:37:31;;;;;;;4.40;2.00;;;;;;;;;;101277;1329;64097;-29
2021/12/03 07:40:05;;;;;;;3.70;1.70;;;;;;;;;;101247;1329;64130;-28
2021/12/03 07:42:35;;;;;;;5.20;2.10;;;;;;;;;;101266;1326;64072;-28
2021/12/03 07:45:05;;;;;;;4.10;2.20;;;;;;;;;;101171;1332;64042;-28
2021/12/03 07:47:35;;;;;;;4.60;2.00;;;;;;;;;;101297;1330;64109;-28
2021/12/03 07:50:07;;;;;;;5.30;2.20;;;;;;;;;;101201;1329;64079;-28
2021/12/03 07:52:34;;;;;;;3.80;1.80;;;;;;;;;;101187;1329;64076;-28
2021/12/03 07:55:02;;;;;;;4.00;1.70;;;;;;;;;;101280;1342;64020;-28
2021/12/03 07:57:32;;;;;;;4.90;2.20;;;;;;;;;;101289;1329;64228;-29
2021/12/03 08:00:02;;;;;;;4.10;1.70;;;;;;;;;;101282;1330;64001;-28
2021/12/03 08:02:32;;;;;;;4.40;1.70;;;;;;;;;;101184;1333;64115;-31
2021/12/03 08:04:59;;;;;;;4.20;1.80;;;;;;;;;;101274;1329;64132;-28
2021/12/03 08:07:30;;;;;;;4.10;1.80;;;;;;;;;;101295;1329;64080;-29
2021/12/03 08:09:57;;;;;;;5.10;1.60;;;;;;;;;;100130;1329;1685297;-28
2021/12/03 08:12:27;;;;;;;4.20;1.80;;;;;;;;;;101235;1329;64105;-29
2021/12/03 08:14:54;;;;;;;5.00;2.10;;;;;;;;;;101267;1329;64107;-28
2021/12/03 08:17:22;;;;;;;4.20;1.80;;;;;;;;;;101285;1329;64403;-28
2021/12/03 08:19:48;;;;;;;3.90;1.80;;;;;;;;;;101275;1329;64009;-28
2021/12/03 08:22:20;;;;;;;4.00;1.60;;;;;;;;;;101268;1329;64112;-28
2021/12/03 08:24:50;;;;;;;4.00;1.70;;;;;;;;;;101281;1336;64110;-28
2021/12/03 08:27:20;;;;;;;4.20;1.90;;;;;;;;;;101283;1329;64429;-28
2021/12/03 08:29:47;;;;;;;3.40;1.50;;;;;;;;;;101142;1339;64081;-27
2021/12/03 08:32:17;;;;;;;4.20;1.90;;;;;;;;;;101266;1330;65515;-27
2021/12/03 08:34:44;;;;;;;3.90;1.50;;;;;;;;;;101161;1339;63995;-27
2021/12/03 08:37:14;;;;;;;4.80;1.80;;;;;;;;;;101259;1330;63988;-28
2021/12/03 08:39:41;;;;;;;3.20;1.50;;;;;;;;;;101264;1335;64547;-28
2021/12/03 08:42:10;;;;;;;4.10;1.70;;;;;;;;;;101286;1329;64127;-28
2021/12/03 08:44:37;;;;;;;3.50;1.70;;;;;;;;;;101304;1330;64223;-29
2021/12/03 08:47:08;;;;;;;3.60;1.80;;;;;;;;;;101256;1329;64292;-28
2021/12/03 08:57:17;;;;;;;4.20;1.60;;;;;;;;;;101295;1329;64111;-28
2021/12/03 08:59:44;;;;;;;5.20;1.50;;;;;;;;;;101213;1329;63987;-28
2021/12/03 09:02:14;;;;;;;3.60;1.60;;;;;;;;;;101280;1329;64393;-27
2021/12/03 09:04:41;;;;;;;4.10;1.60;;;;;;;;;;101159;1338;64268;-28
2021/12/03 09:07:11;;;;;;;4.00;1.60;;;;;;;;;;101280;1329;64080;-33
2021/12/03 09:09:41;;;;;;;3.80;1.70;;;;;;;;;;101285;1327;64008;-29
2021/12/03 09:12:09;;;;;;;4.30;1.70;;;;;;;;;;101255;1329;64044;-29
2021/12/03 09:15:04;;;;;;;6.00;1.90;;;;;;;;;;101306;1329;64006;-28
2021/12/03 09:20:23;;;;;;;6.30;1.90;;;;;;;;;;101256;1328;64003;-28
2021/12/03 09:22:57;;;;;;;4.30;1.50;;;;;;;;;;101270;1329;64130;-28
2021/12/03 09:25:42;;;;;;;4.90;2.20;;;;;;;;;;101298;1330;64203;-29
2021/12/03 09:28:12;;;;;;;9.20;1.90;;;;;;;;;;101194;1335;64057;-25
2021/12/03 09:30:41;;;;;;;6.70;1.80;;;;;;;;;;101246;1329;64004;-25
2021/12/03 09:33:12;;;;;;;6.50;2.10;;;;;;;;;;101255;1329;64047;-27
2021/12/03 09:35:44;;;;;;;5.80;2.10;;;;;;;;;;101276;1329;63971;-30
2021/12/03 09:38:11;;;;;;;4.50;1.90;;;;;;;;;;101273;1329;64011;-27
2021/12/03 09:40:39;;;;;;;5.90;1.70;;;;;;;;;;101279;1329;64009;-29
2021/12/03 09:43:07;;;;;;;4.90;1.90;;;;;;;;;;101262;1328;64108;-29
2021/12/03 09:45:35;;;;;;;4.50;1.90;;;;;;;;;;101269;1329;64159;-31
2021/12/03 09:48:12;;;;;;;5.70;1.90;;;;;;;;;;101270;1333;64024;-27
2021/12/03 09:50:40;;;;;;;5.70;1.70;;;;;;;;;;101273;1329;64127;-25
2021/12/03 09:53:30;;;;;;;5.10;1.90;;;;;;;;;;101235;1329;63993;-26
2021/12/03 09:55:58;;;;;;;4.70;1.70;;;;;;;;;;101260;1340;64285;-29
2021/12/03 09:58:46;;;;;;;4.40;2.10;;;;;;;;;;101260;1329;64151;-28
2021/12/03 10:01:17;;;;;;;6.30;2.00;;;;;;;;;;101194;1329;64023;-26
2021/12/03 10:04:01;;;;;;;5.00;1.70;;;;;;;;;;101248;1336;64072;-26
2021/12/03 10:12:41;;;;;;;4.40;1.70;;;;;;;;;;101280;1335;64676;-28
2021/12/03 10:15:06;;;;;;;3.70;1.60;;;;;;;;;;101218;1341;64096;-26
2021/12/03 10:41:50;;;;;;;6.00;2.00;;;;;;;;;;101256;1329;64140;-29
2021/12/03 10:55:00;;;;;;;4.40;1.80;;;;;;;;;;101278;1329;64032;-30
2021/12/03 11:00:39;;;;;;;5.30;2.10;;;;;;;;;;101297;1329;64017;-26
2021/12/03 11:20:24;;;;;;;5.10;1.60;;;;;;;;;;101050;1332;64086;-31
2021/12/03 11:26:30;;;;;;;4.90;1.80;;;;;;;;;;101252;1330;63996;-26
2021/12/03 11:37:03;;;;;;;3.60;1.70;;;;;;;;;;101216;1329;64073;-25
2021/12/03 11:39:53;;;;;;;4.70;1.80;;;;;;;;;;101186;1329;64107;-29
2021/12/03 12:10:36;;;;;;;6.10;1.90;;;;;;;;;;101269;1329;64077;-26
2021/12/03 13:58:47;;;;;;;5.70;2.60;;;;;;;;;;101195;1339;64115;-25
2021/12/03 14:00:56;;;;;;;6.40;2.60;;;;;;;;;;101200;1333;63943;-30
2021/12/03 14:38:39;;;;;;;5.80;2.60;;;;;;;;;;101249;1336;64120;-28
2021/12/03 14:41:24;;;;;;;5.40;2.20;;;;;;;;;;101242;1329;64113;-25
2021/12/03 14:44:27;;;;;;;5.60;2.40;;;;;;;;;;101284;1329;64067;-25
2021/12/03 14:49:37;;;;;;;5.80;2.30;;;;;;;;;;101132;1330;64320;-25
2021/12/03 14:52:18;;;;;;;5.40;2.30;;;;;;;;;;101265;1329;64126;-25
2021/12/03 15:00:27;;;;;;;5.20;2.50;;;;;;;;;;101210;1327;64228;-25
2021/12/03 15:05:53;;;;;;;5.90;2.40;;;;;;;;;;101245;1329;64320;-25
2021/12/03 15:08:28;;;;;;;6.00;2.40;;;;;;;;;;101036;1330;64012;-25
2021/12/03 15:32:36;;;;;;;6.00;2.90;;;;;;;;;;101138;1332;64109;-28
2021/12/03 16:08:04;;;;;;;5.60;2.90;;;;;;;;;;100871;1335;64097;-29
2021/12/03 16:53:29;;;;;;;6.80;3.00;;;;;;;;;;101158;1338;64142;-28
2021/12/03 16:58:23;;;;;;;6.10;2.90;;;;;;;;;;101254;1330;63976;-28
2021/12/03 17:01:04;;;;;;;6.60;2.70;;;;;;;;;;101268;1329;64184;-24
2021/12/03 17:03:43;;;;;;;7.50;3.00;;;;;;;;;;101221;1329;64011;-25
2021/12/03 17:11:45;;;;;;;6.10;2.70;;;;;;;;;;101292;1326;64123;-25
2021/12/03 17:14:23;;;;;;;6.00;2.90;;;;;;;;;;101307;1341;64296;-25
2021/12/03 17:22:46;;;;;;;6.60;2.90;;;;;;;;;;101319;1336;64134;-25
2021/12/03 17:52:17;;;;;;;5.70;2.70;;;;;;;;;;101117;1332;64235;-27
2021/12/03 17:57:52;;;;;;;6.00;2.90;;;;;;;;;;101124;1332;64098;-30
2021/12/03 18:03:25;;;;;;;6.90;3.10;;;;;;;;;;100838;1336;64219;-25
2021/12/03 18:08:47;;;;;;;6.50;2.80;;;;;;;;;;101255;1340;64154;-30
2021/12/03 18:51:38;;;;;;;5.90;2.80;;;;;;;;;;101160;1329;65290;-28
2021/12/03 18:56:43;;;;;;;7.30;3.00;;;;;;;;;;101186;1329;64110;-29
2021/12/03 18:59:10;;;;;;;6.60;2.80;;;;;;;;;;101211;1329;64029;-30
2021/12/03 19:01:38;;;;;;;6.50;3.00;;;;;;;;;;101095;1344;64168;-29
2021/12/03 19:04:16;;;;;;;7.10;3.00;;;;;;;;;;101014;1344;64122;-26
2021/12/03 19:07:00;;;;;;;5.30;2.80;;;;;;;;;;100862;1333;64028;-25
2021/12/03 19:09:32;;;;;;;5.40;2.60;;;;;;;;;;101222;1343;64017;-28
2021/12/03 19:14:30;;;;;;;6.70;2.90;;;;;;;;;;101245;1335;64135;-27
2021/12/03 19:16:58;;;;;;;6.40;2.70;;;;;;;;;;101241;1336;64213;-28
2021/12/03 19:19:27;;;;;;;7.10;3.00;;;;;;;;;;101250;1340;64150;-25
2021/12/03 19:21:57;;;;;;;8.00;3.10;;;;;;;;;;101272;1329;64177;-24
2021/12/03 19:24:25;;;;;;;6.10;2.90;;;;;;;;;;101253;1333;64002;-29
2021/12/03 19:26:52;;;;;;;6.50;3.20;;;;;;;;;;101274;1343;64156;-28
2021/12/03 19:29:20;;;;;;;5.30;2.80;;;;;;;;;;101251;1342;64136;-27
2021/12/03 19:31:49;;;;;;;6.70;3.40;;;;;;;;;;101190;1329;64231;-28
2021/12/03 19:34:18;;;;;;;7.00;3.10;;;;;;;;;;101190;1329;64204;-28
2021/12/03 19:36:46;;;;;;;6.20;3.20;;;;;;;;;;101173;1329;64091;-28
2021/12/03 19:39:15;;;;;;;5.80;2.90;;;;;;;;;;101238;1329;64429;-28
2021/12/03 19:42:05;;;;;;;6.70;2.90;;;;;;;;;;101285;1339;64089;-28
2021/12/03 19:44:47;;;;;;;6.80;3.20;;;;;;;;;;101267;1329;64020;-25
2021/12/03 19:47:15;;;;;;;6.90;3.40;;;;;;;;;;101265;1336;64037;-25
2021/12/03 19:50:03;;;;;;;5.50;3.00;;;;;;;;;;101269;1342;64118;-29
2021/12/03 19:52:41;;;;;;;7.00;3.50;;;;;;;;;;101152;1329;64229;-29
2021/12/03 19:55:08;;;;;;;6.70;3.50;;;;;;;;;;101136;1344;64100;-29
2021/12/03 19:57:35;;;;;;;6.90;3.20;;;;;;;;;;101248;1342;64143;-29
2021/12/03 20:00:04;;;;;;;6.20;3.10;;;;;;;;;;101288;1342;64112;-28
2021/12/03 20:02:31;;;;;;;7.20;3.80;;;;;;;;;;101273;1343;64769;-28
2021/12/03 20:04:59;;;;;;;6.80;3.60;;;;;;;;;;101269;1342;64053;-28
2021/12/03 20:07:26;;;;;;;9.00;4.20;;;;;;;;;;101278;1333;64030;-29
2021/12/03 20:10:05;;;;;;;6.80;3.20;;;;;;;;;;101292;1344;64460;-27
2021/12/03 20:12:33;;;;;;;6.70;3.30;;;;;;;;;;101136;1342;64726;-27
2021/12/03 20:15:03;;;;;;;7.00;3.70;;;;;;;;;;101231;1335;63956;-27
2021/12/03 20:20:20;;;;;;;6.60;3.30;;;;;;;;;;100870;1340;64222;-29
2021/12/03 20:28:02;;;;;;;6.30;3.30;;;;;;;;;;101256;1344;64083;-29
2021/12/03 20:33:37;;;;;;;7.00;3.80;;;;;;;;;;101223;1343;64139;-27
2021/12/03 20:38:42;;;;;;;7.50;3.20;;;;;;;;;;101228;1328;64468;-27
2021/12/03 20:41:14;;;;;;;7.20;3.90;;;;;;;;;;101265;1336;64090;-29
2021/12/03 20:53:44;;;;;;;9.80;6.00;;;;;;;;;;101238;1342;64054;-30
2021/12/03 21:09:52;;;;;;;7.60;4.20;;;;;;;;;;101224;1344;64132;-28
2021/12/03 21:12:24;;;;;;;9.80;4.30;;;;;;;;;;101187;1343;64114;-28
2021/12/03 21:15:00;;;;;;;8.20;4.40;;;;;;;;;;101155;1344;64064;-29
2021/12/03 21:17:43;;;;;;;8.30;3.70;;;;;;;;;;101075;1338;65044;-29
2021/12/03 21:22:49;;;;;;;7.60;4.20;;;;;;;;;;101115;1342;64102;-29
2021/12/03 21:25:20;;;;;;;7.50;3.90;;;;;;;;;;101118;1341;64119;-28
2021/12/03 21:27:54;;;;;;;6.60;4.10;;;;;;;;;;101118;1344;64117;-28
2021/12/03 21:30:38;;;;;;;9.40;4.50;;;;;;;;;;101211;1344;63995;-28
2021/12/03 21:43:47;;;;;;;6.70;3.70;;;;;;;;;;100995;1344;64335;-30
2021/12/03 21:46:16;;;;;;;7.30;3.90;;;;;;;;;;101027;1344;64203;-28
2021/12/03 21:48:43;;;;;;;7.70;3.80;;;;;;;;;;101046;1344;64085;-27
2021/12/03 21:51:10;;;;;;;7.10;3.90;;;;;;;;;;101173;1344;64209;-32
2021/12/03 21:53:37;;;;;;;7.00;3.80;;;;;;;;;;101171;1341;64131;-34
2021/12/03 21:56:05;;;;;;;7.30;4.00;;;;;;;;;;101205;1343;64585;-28
2021/12/03 21:58:32;;;;;;;7.90;3.90;;;;;;;;;;101191;1344;63992;-43
2021/12/03 22:00:59;;;;;;;7.20;3.80;;;;;;;;;;101186;1342;64216;-32
2021/12/03 22:03:26;;;;;;;8.20;4.20;;;;;;;;;;101198;1344;64163;-29
2021/12/03 22:05:54;;;;;;;7.00;4.10;;;;;;;;;;101202;1343;64114;-29
2021/12/03 22:08:21;;;;;;;8.10;3.80;;;;;;;;;;101100;1343;64027;-30
2021/12/03 22:10:48;;;;;;;7.60;4.70;;;;;;;;;;101289;1342;64121;-27
2021/12/03 22:13:16;;;;;;;7.60;4.00;;;;;;;;;;101287;1340;64190;-26
2021/12/03 22:15:43;;;;;;;8.40;4.50;;;;;;;;;;101334;1342;64184;-28
2021/12/03 22:18:10;;;;;;;7.30;4.00;;;;;;;;;;101291;1326;63948;-27
2021/12/03 22:20:37;;;;;;;8.70;4.30;;;;;;;;;;101285;1334;64186;-28
2021/12/03 22:23:04;;;;;;;8.10;4.20;;;;;;;;;;101282;1340;64085;-31
2021/12/03 22:25:32;;;;;;;8.40;4.20;;;;;;;;;;101305;1340;64625;-29
2021/12/03 22:27:59;;;;;;;7.70;4.30;;;;;;;;;;101256;1340;64234;-27
2021/12/03 22:30:26;;;;;;;7.40;4.50;;;;;;;;;;101101;1330;64054;-30
2021/12/03 22:32:53;;;;;;;7.00;4.20;;;;;;;;;;101178;1343;64228;-36
2021/12/03 22:35:21;;;;;;;7.20;4.00;;;;;;;;;;101214;1341;64017;-31
2021/12/03 22:37:47;;;;;;;7.90;4.20;;;;;;;;;;101268;1327;64689;-29
2021/12/03 22:40:14;;;;;;;8.10;4.30;;;;;;;;;;101242;1329;64017;-28
2021/12/03 22:42:42;;;;;;;7.40;4.20;;;;;;;;;;101125;1343;64163;-28
2021/12/03 22:45:12;;;;;;;8.70;4.50;;;;;;;;;;101245;1336;64041;-27
2021/12/03 22:47:51;;;;;;;7.00;4.00;;;;;;;;;;101236;1343;64191;-27
2021/12/03 22:50:29;;;;;;;7.40;4.00;;;;;;;;;;101057;1332;64116;-28
2021/12/03 22:52:56;;;;;;;7.00;4.20;;;;;;;;;;101203;1344;64027;-27
2021/12/03 22:55:24;;;;;;;8.40;3.90;;;;;;;;;;101182;1329;64167;-28
2021/12/03 22:57:51;;;;;;;7.90;4.20;;;;;;;;;;101165;1342;63987;-27
2021/12/03 23:00:36;;;;;;;8.30;4.20;;;;;;;;;;101159;1329;64084;-28
2021/12/03 23:03:03;;;;;;;7.70;4.10;;;;;;;;;;101173;1344;64103;-27
2021/12/03 23:05:30;;;;;;;7.90;4.20;;;;;;;;;;101187;1343;64159;-27
2021/12/03 23:07:58;;;;;;;8.20;3.90;;;;;;;;;;101177;1330;64777;-26
2021/12/03 23:10:24;;;;;;;7.50;4.10;;;;;;;;;;101168;1330;64142;-28